createdAt,value
2017-09-17T00:01:43.321Z,76.45
2017-09-17T00:04:10.949Z,76.49
2017-09-17T00:06:38.545Z,76.48
2017-09-17T00:09:06.148Z,76.63
2017-09-17T00:11:33.785Z,76.52
2017-09-17T00:14:01.392Z,76.39
2017-09-17T00:16:29.027Z,76.45
2017-09-17T00:18:56.613Z,76.57
2017-09-17T00:21:24.490Z,76.56
2017-09-17T00:23:52.111Z,76.53
2017-09-17T00:26:19.708Z,76.57
2017-09-17T00:28:47.325Z,76.51
2017-09-17T00:31:14.913Z,76.88
2017-09-17T00:33:42.804Z,76.49
2017-09-17T00:36:10.421Z,76.85
2017-09-17T00:38:38.004Z,76.94
2017-09-17T00:41:05.636Z,76.98
2017-09-17T00:43:33.222Z,77.06
2017-09-17T00:46:00.800Z,76.99
2017-09-17T00:48:28.406Z,76.92
2017-09-17T00:50:56.003Z,77.00
2017-09-17T00:53:23.627Z,77.05
2017-09-17T00:55:51.323Z,76.92
2017-09-17T00:58:18.916Z,77.12
2017-09-17T01:00:46.528Z,77.02
2017-09-17T01:03:14.110Z,77.04
2017-09-17T01:05:41.743Z,77.10
2017-09-17T01:08:09.328Z,77.06
2017-09-17T01:10:36.909Z,77.22
2017-09-17T01:13:04.732Z,77.23
2017-09-17T01:15:32.667Z,77.35
2017-09-17T01:18:00.288Z,77.30
2017-09-17T01:20:27.907Z,77.18
2017-09-17T01:22:55.497Z,77.25
2017-09-17T01:25:23.424Z,77.25
2017-09-17T01:27:51.291Z,77.29
2017-09-17T01:30:18.935Z,77.57
2017-09-17T01:32:46.759Z,77.30
2017-09-17T01:35:14.352Z,77.45
2017-09-17T01:37:41.964Z,77.67
2017-09-17T01:40:09.547Z,77.40
2017-09-17T01:42:37.179Z,77.47
2017-09-17T01:45:04.789Z,77.61
2017-09-17T01:47:32.599Z,77.56
2017-09-17T01:50:00.201Z,77.68
2017-09-17T01:52:28.130Z,77.80
2017-09-17T01:54:55.755Z,77.66
2017-09-17T01:57:23.346Z,77.79
2017-09-17T01:59:50.933Z,77.88
2017-09-17T02:02:18.678Z,77.90
2017-09-17T02:04:46.263Z,77.67
2017-09-17T02:07:13.889Z,77.37
2017-09-17T02:09:41.481Z,77.58
2017-09-17T02:12:09.062Z,77.73
2017-09-17T02:14:36.671Z,77.66
2017-09-17T02:17:04.259Z,77.44
2017-09-17T02:19:31.883Z,77.82
2017-09-17T02:21:59.457Z,77.97
2017-09-17T02:24:27.038Z,78.07
2017-09-17T02:26:54.638Z,77.82
2017-09-17T02:29:22.239Z,77.83
2017-09-17T02:31:49.877Z,77.92
2017-09-17T02:34:17.481Z,77.87
2017-09-17T02:36:45.068Z,77.72
2017-09-17T02:39:12.696Z,77.84
2017-09-17T02:41:40.284Z,77.91
2017-09-17T02:44:07.904Z,77.83
2017-09-17T02:46:35.489Z,77.82
2017-09-17T02:49:03.071Z,77.63
2017-09-17T02:51:30.690Z,77.79
2017-09-17T02:53:58.277Z,77.76
2017-09-17T02:56:25.912Z,77.74
2017-09-17T02:58:53.805Z,77.69
2017-09-17T03:01:21.391Z,77.75
2017-09-17T03:03:49.010Z,77.94
2017-09-17T03:06:16.595Z,77.83
2017-09-17T03:08:44.206Z,77.86
2017-09-17T03:11:11.791Z,77.87
2017-09-17T03:13:39.679Z,77.84
2017-09-17T03:16:07.293Z,77.64
2017-09-17T03:18:34.869Z,77.75
2017-09-17T03:21:02.500Z,77.72
2017-09-17T03:23:30.076Z,77.98
2017-09-17T03:25:57.669Z,78.16
2017-09-17T03:28:25.274Z,78.30
2017-09-17T03:30:52.853Z,78.24
2017-09-17T03:33:20.591Z,78.33
2017-09-17T03:35:48.187Z,78.16
2017-09-17T03:38:15.767Z,78.14
2017-09-17T03:40:43.663Z,78.00
2017-09-17T03:43:11.254Z,78.15
2017-09-17T03:45:38.871Z,78.22
2017-09-17T03:48:06.456Z,78.28
2017-09-17T03:50:34.047Z,78.23
2017-09-17T03:53:01.664Z,78.02
2017-09-17T03:55:29.259Z,78.40
2017-09-17T03:57:56.883Z,78.34
2017-09-17T04:00:24.483Z,77.93
2017-09-17T04:02:52.076Z,78.44
2017-09-17T04:05:19.721Z,78.46
2017-09-17T04:07:47.305Z,78.65
2017-09-17T04:10:14.941Z,78.63
2017-09-17T04:12:42.524Z,78.64
2017-09-17T04:15:10.109Z,78.46
2017-09-17T04:17:37.735Z,78.44
2017-09-17T04:20:05.336Z,78.56
2017-09-17T04:22:32.954Z,78.48
2017-09-17T04:25:00.541Z,78.79
2017-09-17T04:27:28.136Z,78.80
2017-09-17T04:29:55.745Z,78.76
2017-09-17T04:32:23.336Z,78.66
2017-09-17T04:34:51.331Z,78.67
2017-09-17T04:37:18.925Z,78.56
2017-09-17T04:39:46.516Z,78.54
2017-09-17T04:42:14.135Z,78.53
2017-09-17T04:44:41.720Z,78.67
2017-09-17T04:47:09.377Z,78.80
2017-09-17T04:52:10.763Z,78.68
2017-09-17T04:54:38.360Z,78.69
2017-09-17T04:57:05.942Z,78.82
2017-09-17T04:59:33.556Z,78.52
2017-09-17T05:02:01.136Z,78.46
2017-09-17T05:04:29.132Z,78.56
2017-09-17T05:06:56.720Z,78.45
2017-09-17T05:09:24.308Z,78.46
2017-09-17T05:11:51.924Z,78.41
2017-09-17T05:14:19.519Z,78.60
2017-09-17T05:16:47.140Z,78.62
2017-09-17T05:19:14.800Z,78.53
2017-09-17T05:21:42.386Z,78.62
2017-09-17T05:24:10.011Z,78.47
2017-09-17T05:26:37.728Z,78.35
2017-09-17T05:29:05.352Z,78.52
2017-09-17T05:31:32.938Z,78.52
2017-09-17T05:34:00.783Z,78.35
2017-09-17T05:36:28.645Z,78.46
2017-09-17T05:38:56.242Z,78.30
2017-09-17T05:41:23.871Z,78.21
2017-09-17T05:43:51.468Z,78.27
2017-09-17T05:46:19.046Z,78.38
2017-09-17T05:48:46.660Z,78.25
2017-09-17T05:51:14.525Z,78.27
2017-09-17T05:53:42.164Z,78.18
2017-09-17T05:56:09.742Z,78.33
2017-09-17T05:58:37.316Z,78.10
2017-09-17T06:01:04.930Z,78.54
2017-09-17T06:03:32.509Z,78.89
2017-09-17T06:06:00.109Z,79.20
2017-09-17T06:08:27.719Z,79.02
2017-09-17T06:10:55.304Z,78.89
2017-09-17T06:13:22.895Z,78.82
2017-09-17T06:15:50.531Z,78.62
2017-09-17T06:18:18.104Z,78.75
2017-09-17T06:20:45.722Z,78.63
2017-09-17T06:23:13.330Z,77.97
2017-09-17T06:25:40.931Z,77.93
2017-09-17T06:28:08.565Z,77.92
2017-09-17T06:30:36.149Z,77.64
2017-09-17T06:33:03.728Z,77.16
2017-09-17T06:35:31.365Z,77.29
2017-09-17T06:37:59.007Z,77.15
2017-09-17T06:40:26.632Z,77.44
2017-09-17T06:42:54.208Z,77.39
2017-09-17T06:45:22.084Z,77.69
2017-09-17T06:47:49.690Z,77.77
2017-09-17T06:50:17.263Z,77.45
2017-09-17T06:52:44.894Z,77.62
2017-09-17T06:55:12.474Z,77.20
2017-09-17T06:57:40.049Z,76.72
2017-09-17T07:00:07.656Z,76.86
2017-09-17T07:02:35.520Z,76.90
2017-09-17T07:05:03.136Z,76.35
2017-09-17T07:07:31.052Z,75.99
2017-09-17T07:09:58.641Z,75.28
2017-09-17T07:12:26.274Z,74.81
2017-09-17T07:14:53.860Z,73.77
2017-09-17T07:17:21.823Z,72.90
2017-09-17T07:19:49.680Z,72.89
2017-09-17T07:22:17.551Z,72.40
2017-09-17T07:24:45.163Z,71.92
2017-09-17T07:27:12.782Z,72.04
2017-09-17T07:29:40.416Z,72.27
2017-09-17T07:32:08.000Z,72.28
2017-09-17T07:34:35.594Z,72.61
2017-09-17T07:37:03.246Z,72.88
2017-09-17T07:39:30.834Z,73.62
2017-09-17T07:41:58.749Z,73.87
2017-09-17T07:44:26.343Z,74.07
2017-09-17T07:46:54.008Z,74.45
2017-09-17T07:49:21.618Z,73.44
2017-09-17T07:51:49.196Z,73.15
2017-09-17T07:54:16.819Z,73.46
2017-09-17T07:56:44.400Z,73.53
2017-09-17T07:59:11.981Z,73.85
2017-09-17T08:01:39.618Z,73.59
2017-09-17T08:04:07.216Z,72.57
2017-09-17T08:06:34.910Z,71.12
2017-09-17T08:09:02.501Z,70.84
2017-09-17T08:11:30.077Z,71.52
2017-09-17T08:13:57.688Z,70.44
2017-09-17T08:16:26.085Z,69.37
2017-09-17T08:18:54.001Z,69.68
2017-09-17T08:21:21.591Z,70.04
2017-09-17T08:23:49.191Z,69.50
2017-09-17T08:26:16.816Z,69.53
2017-09-17T08:28:44.407Z,68.19
2017-09-17T08:31:12.316Z,68.95
2017-09-17T08:33:39.920Z,69.03
2017-09-17T08:36:07.511Z,68.66
2017-09-17T08:38:35.131Z,66.67
2017-09-17T08:41:02.721Z,67.45
2017-09-17T08:43:30.344Z,66.25
2017-09-17T08:45:57.922Z,65.96
2017-09-17T08:48:25.515Z,65.21
2017-09-17T08:50:53.143Z,63.76
2017-09-17T08:53:20.724Z,63.37
2017-09-17T08:55:48.690Z,62.35
2017-09-17T08:58:16.289Z,59.41
2017-09-17T09:00:43.889Z,60.53
2017-09-17T09:03:11.497Z,57.38
2017-09-17T09:05:39.090Z,57.77
2017-09-17T09:08:07.560Z,58.67
2017-09-17T09:10:35.157Z,58.50
2017-09-17T09:13:02.750Z,56.75
2017-09-17T09:15:30.370Z,55.67
2017-09-17T09:17:57.988Z,53.83
2017-09-17T09:20:25.611Z,54.11
2017-09-17T09:22:53.202Z,53.29
2017-09-17T09:25:20.786Z,52.79
2017-09-17T09:27:48.572Z,54.01
2017-09-17T09:30:16.149Z,53.92
2017-09-17T09:32:43.770Z,53.93
2017-09-17T09:35:11.378Z,55.08
2017-09-17T09:37:39.013Z,55.75
2017-09-17T09:40:06.883Z,56.35
2017-09-17T09:42:34.749Z,56.16
2017-09-17T09:45:02.396Z,54.96
2017-09-17T09:47:30.027Z,54.02
2017-09-17T09:49:57.628Z,54.47
2017-09-17T09:52:25.243Z,55.03
2017-09-17T09:54:52.823Z,55.48
2017-09-17T09:57:20.444Z,55.98
2017-09-17T09:59:48.033Z,57.13
2017-09-17T10:02:15.768Z,56.74
2017-09-17T10:04:43.393Z,56.83
2017-09-17T10:07:11.003Z,56.51
2017-09-17T10:09:38.638Z,56.39
2017-09-17T10:12:06.213Z,56.56
2017-09-17T10:14:33.796Z,56.43
2017-09-17T10:17:01.414Z,56.37
2017-09-17T10:19:28.992Z,56.66
2017-09-17T10:21:56.615Z,55.73
2017-09-17T10:24:24.193Z,56.97
2017-09-17T10:26:51.788Z,54.69
2017-09-17T10:29:19.413Z,53.54
2017-09-17T10:31:46.993Z,53.83
2017-09-17T10:34:14.635Z,53.08
2017-09-17T10:36:42.220Z,52.77
2017-09-17T10:39:09.832Z,51.10
2017-09-17T10:41:37.464Z,50.99
2017-09-17T10:44:05.298Z,48.78
2017-09-17T10:46:32.923Z,48.87
2017-09-17T10:49:00.835Z,48.30
2017-09-17T10:51:28.701Z,47.93
2017-09-17T10:53:56.318Z,47.62
2017-09-17T10:56:24.232Z,48.01
2017-09-17T10:58:52.204Z,49.11
2017-09-17T11:01:19.799Z,49.59
2017-09-17T11:03:47.376Z,49.01
2017-09-17T11:06:14.985Z,50.53
2017-09-17T11:08:42.853Z,49.34
2017-09-17T11:11:10.484Z,50.13
2017-09-17T11:13:38.073Z,49.28
2017-09-17T11:16:05.666Z,49.59
2017-09-17T11:18:33.272Z,49.31
2017-09-17T11:23:34.724Z,47.58
2017-09-17T11:26:02.307Z,47.21
2017-09-17T11:28:29.888Z,46.13
2017-09-17T11:30:57.499Z,44.95
2017-09-17T11:33:25.074Z,44.24
2017-09-17T11:35:52.786Z,43.78
2017-09-17T11:38:20.653Z,41.45
2017-09-17T11:40:48.512Z,39.78
2017-09-17T11:43:17.957Z,40.45
2017-09-17T11:45:45.557Z,38.39
2017-09-17T11:48:13.193Z,36.45
2017-09-17T11:50:40.772Z,35.94
2017-09-17T11:53:08.387Z,35.23
2017-09-17T11:55:35.995Z,36.77
2017-09-17T11:58:03.599Z,39.04
2017-09-17T12:00:31.225Z,40.51
2017-09-17T12:02:58.823Z,40.64
2017-09-17T12:05:26.409Z,42.27
2017-09-17T12:07:54.014Z,43.79
2017-09-17T12:10:21.601Z,43.05
2017-09-17T12:12:49.218Z,44.72
2017-09-17T12:15:16.818Z,44.47
2017-09-17T12:17:44.402Z,36.40
2017-09-17T12:20:12.025Z,28.65
2017-09-17T12:22:39.626Z,23.51
2017-09-17T12:25:07.262Z,18.79
2017-09-17T12:27:34.848Z,18.61
2017-09-17T12:30:02.425Z,17.35
2017-09-17T12:32:30.028Z,16.36
2017-09-17T12:34:57.614Z,16.72
2017-09-17T12:37:25.283Z,18.43
2017-09-17T12:39:52.889Z,20.54
2017-09-17T12:42:20.488Z,22.20
2017-09-17T12:44:48.113Z,25.18
2017-09-17T12:47:15.692Z,28.70
2017-09-17T12:49:43.319Z,30.78
2017-09-17T12:52:10.904Z,35.29
2017-09-17T12:54:38.479Z,36.27
2017-09-17T12:57:06.074Z,38.24
2017-09-17T12:59:33.682Z,40.52
2017-09-17T13:02:01.296Z,41.21
2017-09-17T13:04:28.885Z,42.43
2017-09-17T13:06:56.461Z,42.91
2017-09-17T13:09:24.081Z,42.58
2017-09-17T13:11:51.670Z,42.43
2017-09-17T13:14:19.307Z,43.68
2017-09-17T13:16:46.898Z,44.56
2017-09-17T13:19:14.489Z,45.20
2017-09-17T13:21:42.116Z,44.02
2017-09-17T13:24:09.737Z,43.73
2017-09-17T13:26:37.324Z,45.34
2017-09-17T13:29:04.970Z,47.10
2017-09-17T13:31:32.556Z,46.66
2017-09-17T13:34:00.303Z,46.51
2017-09-17T13:36:27.930Z,45.93
2017-09-17T13:38:55.532Z,46.43
2017-09-17T13:41:23.156Z,46.87
2017-09-17T13:43:50.931Z,45.44
2017-09-17T13:46:18.553Z,45.43
2017-09-17T13:48:46.195Z,46.53
2017-09-17T13:51:13.804Z,46.99
2017-09-17T13:53:41.422Z,47.54
2017-09-17T13:56:09.379Z,47.92
2017-09-17T13:58:36.986Z,48.18
2017-09-17T14:04:13.224Z,46.68
2017-09-17T14:06:51.556Z,46.17
2017-09-17T14:09:20.116Z,47.28
2017-09-17T14:11:47.724Z,46.77
2017-09-17T14:14:15.342Z,47.23
2017-09-17T14:16:42.938Z,47.36
2017-09-17T14:19:10.767Z,46.44
2017-09-17T14:21:38.418Z,47.80
2017-09-17T14:24:06.034Z,48.84
2017-09-17T14:26:33.649Z,47.19
2017-09-17T14:29:01.236Z,47.43
2017-09-17T14:31:28.872Z,48.29
2017-09-17T14:33:56.456Z,48.08
2017-09-17T14:36:24.320Z,48.38
2017-09-17T14:38:51.985Z,48.22
2017-09-17T14:41:19.577Z,48.49
2017-09-17T14:43:47.200Z,48.64
2017-09-17T14:46:14.781Z,48.82
2017-09-17T14:48:42.356Z,49.51
2017-09-17T14:51:09.980Z,49.89
2017-09-17T14:53:37.571Z,49.30
2017-09-17T14:56:05.194Z,49.83
2017-09-17T14:58:32.875Z,50.03
2017-09-17T15:01:00.451Z,49.82
2017-09-17T15:03:28.069Z,49.34
2017-09-17T15:05:55.664Z,48.50
2017-09-17T15:08:23.304Z,48.91
2017-09-17T15:10:50.895Z,48.83
2017-09-17T15:13:18.487Z,49.27
2017-09-17T15:15:46.113Z,49.63
2017-09-17T15:18:13.709Z,50.04
2017-09-17T15:20:41.451Z,50.82
2017-09-17T15:23:09.392Z,51.68
2017-09-17T15:25:36.990Z,52.34
2017-09-17T15:28:04.639Z,53.33
2017-09-17T15:30:32.256Z,54.07
2017-09-17T15:32:59.887Z,54.90
2017-09-17T15:35:27.475Z,55.08
2017-09-17T15:37:55.074Z,55.97
2017-09-17T15:40:22.940Z,55.22
2017-09-17T15:42:50.801Z,55.19
2017-09-17T15:45:18.448Z,56.17
2017-09-17T15:47:46.043Z,56.08
2017-09-17T15:50:13.655Z,55.55
2017-09-17T15:52:41.268Z,56.09
2017-09-17T15:55:08.884Z,57.15
2017-09-17T15:57:36.547Z,57.50
2017-09-17T16:00:04.153Z,55.07
2017-09-17T16:02:31.766Z,54.87
2017-09-17T16:04:59.384Z,55.00
2017-09-17T16:07:26.971Z,54.54
2017-09-17T16:09:54.719Z,52.73
2017-09-17T16:12:22.333Z,52.96
2017-09-17T16:14:49.920Z,53.98
2017-09-17T16:17:17.540Z,54.08
2017-09-17T16:19:45.112Z,54.95
2017-09-17T16:22:12.738Z,55.13
2017-09-17T16:24:40.339Z,55.20
2017-09-17T16:27:07.937Z,55.60
2017-09-17T16:29:35.582Z,55.16
2017-09-17T16:32:03.198Z,55.08
2017-09-17T16:34:30.811Z,55.62
2017-09-17T16:36:58.385Z,55.98
2017-09-17T16:39:25.967Z,55.41
2017-09-17T16:41:53.595Z,55.70
2017-09-17T16:44:21.192Z,55.97
2017-09-17T16:46:48.819Z,56.21
2017-09-17T16:49:16.404Z,56.38
2017-09-17T16:51:43.981Z,56.45
2017-09-17T16:54:11.600Z,56.21
2017-09-17T16:56:39.175Z,56.36
2017-09-17T16:59:06.801Z,56.41
2017-09-17T17:01:34.687Z,56.66
2017-09-17T17:04:02.284Z,56.96
2017-09-17T17:06:29.906Z,57.44
2017-09-17T17:08:57.485Z,58.30
2017-09-17T17:11:25.104Z,59.02
2017-09-17T17:13:52.706Z,59.84
2017-09-17T17:16:20.299Z,60.47
2017-09-17T17:18:47.923Z,60.86
2017-09-17T17:21:15.528Z,61.27
2017-09-17T17:23:43.162Z,61.72
2017-09-17T17:26:10.745Z,62.27
2017-09-17T17:28:38.385Z,62.52
2017-09-17T17:31:06.013Z,63.17
2017-09-17T17:33:33.641Z,63.51
2017-09-17T17:36:01.265Z,63.77
2017-09-17T17:38:28.847Z,64.01
2017-09-17T17:40:56.461Z,64.51
2017-09-17T17:43:24.067Z,64.85
2017-09-17T17:45:51.656Z,65.12
2017-09-17T17:48:19.279Z,65.78
2017-09-17T17:50:47.137Z,65.99
2017-09-17T17:53:15.004Z,66.08
2017-09-17T17:55:42.699Z,66.63
2017-09-17T17:58:10.352Z,66.88
2017-09-17T18:00:37.972Z,66.90
2017-09-17T18:03:05.674Z,67.25
2017-09-17T18:05:33.271Z,67.63
2017-09-17T18:08:00.880Z,68.17
2017-09-17T18:10:28.480Z,68.34
2017-09-17T18:12:56.405Z,68.72
2017-09-17T18:15:24.040Z,68.97
2017-09-17T18:17:51.629Z,68.92
2017-09-17T18:20:19.496Z,69.12
2017-09-17T18:22:47.079Z,69.44
2017-09-17T18:25:14.704Z,69.81
2017-09-17T18:27:42.702Z,70.20
2017-09-17T18:30:10.303Z,70.29
2017-09-17T18:32:37.947Z,70.45
2017-09-17T18:35:05.764Z,70.72
2017-09-17T18:37:33.429Z,70.88
2017-09-17T18:40:01.015Z,71.12
2017-09-17T18:42:28.619Z,71.18
2017-09-17T18:44:56.273Z,71.17
2017-09-17T18:47:24.201Z,71.12
2017-09-17T18:49:51.829Z,71.39
2017-09-17T18:52:19.424Z,71.25
2017-09-17T18:54:47.298Z,70.87
2017-09-17T18:57:14.918Z,70.78
2017-09-17T18:59:42.527Z,70.60
2017-09-17T19:02:10.143Z,70.13
2017-09-17T19:04:37.742Z,70.05
2017-09-17T19:07:05.320Z,70.10
2017-09-17T19:09:32.945Z,70.21
2017-09-17T19:12:00.596Z,69.99
2017-09-17T19:14:28.261Z,70.27
2017-09-17T19:16:56.156Z,70.29
2017-09-17T19:19:23.744Z,70.42
2017-09-17T19:21:51.360Z,70.79
2017-09-17T19:24:19.018Z,70.91
2017-09-17T19:26:46.688Z,70.98
2017-09-17T19:29:14.275Z,70.47
2017-09-17T19:31:41.863Z,70.57
2017-09-17T19:34:09.492Z,70.22
2017-09-17T19:36:37.089Z,70.19
2017-09-17T19:39:05.147Z,70.55
2017-09-17T19:41:32.743Z,70.83
2017-09-17T19:44:00.333Z,70.82
2017-09-17T19:46:27.961Z,70.74
2017-09-17T19:48:55.552Z,70.98
2017-09-17T19:51:23.166Z,71.08
2017-09-17T19:53:50.746Z,71.34
2017-09-17T19:56:18.366Z,71.40
2017-09-17T19:58:45.987Z,71.27
2017-09-17T20:01:13.604Z,71.51
2017-09-17T20:03:41.449Z,71.61
2017-09-17T20:06:09.089Z,71.51
2017-09-17T20:08:36.672Z,71.43
2017-09-17T20:11:04.249Z,71.42
2017-09-17T20:13:31.871Z,71.49
2017-09-17T20:15:59.775Z,71.14
2017-09-17T20:18:27.356Z,70.88
2017-09-17T20:20:55.303Z,69.04
2017-09-17T20:23:22.889Z,69.14
2017-09-17T20:25:50.557Z,68.71
2017-09-17T20:28:18.165Z,67.95
2017-09-17T20:30:45.762Z,69.77
2017-09-17T20:33:13.417Z,70.12
2017-09-17T20:35:41.003Z,70.81
2017-09-17T20:38:08.638Z,71.26
2017-09-17T20:40:36.219Z,71.23
2017-09-17T20:43:03.821Z,71.25
2017-09-17T20:45:31.626Z,71.16
2017-09-17T20:47:59.215Z,70.89
2017-09-17T20:50:26.849Z,70.99
2017-09-17T20:52:54.491Z,71.06
2017-09-17T20:55:22.375Z,70.80
2017-09-17T20:57:49.998Z,70.41
2017-09-17T21:00:17.597Z,70.44
2017-09-17T21:02:45.238Z,70.00
2017-09-17T21:05:12.821Z,70.14
2017-09-17T21:07:40.691Z,69.98
2017-09-17T21:10:08.358Z,69.91
2017-09-17T21:12:35.984Z,69.87
2017-09-17T21:15:03.632Z,70.19
2017-09-17T21:17:31.218Z,70.67
2017-09-17T21:19:58.791Z,70.80
2017-09-17T21:22:26.424Z,70.82
2017-09-17T21:24:54.011Z,70.61
2017-09-17T21:27:21.657Z,70.64
2017-09-17T21:29:49.238Z,70.61
2017-09-17T21:32:16.834Z,70.84
2017-09-17T21:34:44.443Z,70.78
2017-09-17T21:37:12.019Z,70.81
2017-09-17T21:39:39.659Z,70.81
2017-09-17T21:42:08.563Z,70.76
2017-09-17T21:44:36.201Z,70.78
2017-09-17T21:47:03.823Z,70.87
2017-09-17T21:49:31.403Z,70.89
2017-09-17T21:51:59.044Z,71.07
2017-09-17T21:54:26.643Z,70.80
2017-09-17T21:56:54.225Z,71.10
2017-09-17T21:59:22.130Z,71.25
2017-09-17T22:01:49.707Z,71.03
2017-09-17T22:04:17.325Z,71.22
2017-09-17T22:06:44.924Z,71.19
2017-09-17T22:09:12.510Z,71.40
2017-09-17T22:11:40.123Z,71.33
2017-09-17T22:14:07.744Z,71.35
2017-09-17T22:16:35.367Z,71.27
2017-09-17T22:19:02.955Z,71.22
2017-09-17T22:21:30.887Z,71.32
2017-09-17T22:23:58.762Z,71.57
2017-09-17T22:26:26.626Z,71.83
2017-09-17T22:28:54.244Z,71.74
2017-09-17T22:31:21.842Z,71.75
2017-09-17T22:33:49.411Z,71.82
2017-09-17T22:36:17.024Z,71.99
2017-09-17T22:38:44.611Z,71.81
2017-09-17T22:41:12.228Z,71.71
2017-09-17T22:43:39.808Z,71.56
2017-09-17T22:46:07.400Z,71.44
2017-09-17T22:48:35.005Z,71.56
2017-09-17T22:51:02.609Z,71.45
2017-09-17T22:53:30.232Z,71.27
2017-09-17T22:55:57.822Z,71.04
2017-09-17T22:58:25.417Z,71.06
2017-09-17T23:00:53.040Z,71.10
2017-09-17T23:03:20.638Z,71.41
2017-09-17T23:05:48.272Z,71.24
2017-09-17T23:08:15.849Z,70.99
2017-09-17T23:10:43.444Z,70.86
2017-09-17T23:13:11.078Z,70.47
2017-09-17T23:15:38.664Z,70.23
2017-09-17T23:18:06.298Z,69.97
2017-09-17T23:20:33.920Z,70.05
2017-09-17T23:23:01.539Z,69.73
2017-09-17T23:25:29.176Z,69.47
2017-09-17T23:27:56.773Z,69.79
2017-09-17T23:30:24.420Z,69.93
2017-09-17T23:32:52.041Z,69.75
2017-09-17T23:35:19.639Z,69.80
2017-09-17T23:37:47.625Z,70.04
2017-09-17T23:40:15.492Z,69.92
2017-09-17T23:42:43.264Z,69.76
2017-09-17T23:45:10.894Z,69.78
2017-09-17T23:47:38.486Z,70.85
2017-09-17T23:50:06.119Z,71.00
2017-09-17T23:52:33.700Z,70.76
2017-09-17T23:55:01.582Z,70.84
2017-09-17T23:57:29.170Z,71.27
2017-09-17T23:59:57.105Z,71.87
